Time;durP1;ratioP1;P1;durP2;ratioP2;P2;SDS_P1;SDS_P2;PMS_P1;PMS_P2;Temp;Humidity;BMP_temperature;BMP_pressure;BME280_temperature;BME280_humidity;BME280_pressure;Samples;Min_cycle;Max_cycle;Signal;HPM_P1;HPM_P2
2022/09/28 00:01:26;;;;;;;;;;;7.30;99.90;;;;;;5038791;28;19958;-67
2022/09/28 00:03:53;;;;;;;;;;;7.40;99.90;;;;;;5039015;28;19917;-67
2022/09/28 00:06:23;;;;;;;;;;;7.30;99.90;;;;;;5038970;28;20219;-67
2022/09/28 00:08:49;;;;;;;;;;;7.40;99.90;;;;;;5035012;28;19917;-67
2022/09/28 00:11:15;;;;;;;;;;;7.30;99.90;;;;;;5038387;28;20418;-67
2022/09/28 00:13:41;;;;;;;;;;;7.40;99.90;;;;;;5039212;28;20370;-67
2022/09/28 00:16:09;;;;;;;;;;;7.40;99.90;;;;;;5038136;28;19917;-67
2022/09/28 00:18:35;;;;;;;;;;;7.40;99.90;;;;;;5039777;28;19916;-67
2022/09/28 00:21:07;;;;;;;;;;;7.40;99.90;;;;;;5026652;28;20191;-67
2022/09/28 00:23:34;;;;;;;;;;;7.30;99.90;;;;;;5034489;28;20076;-67
2022/09/28 00:26:03;;;;;;;;;;;7.30;99.90;;;;;;5037848;28;20368;-67
2022/09/28 00:28:30;;;;;;;;;;;7.20;99.90;;;;;;5036940;28;20471;-67
2022/09/28 00:30:56;;;;;;;;;;;7.20;99.90;;;;;;5036298;28;20067;-69
2022/09/28 00:33:21;;;;;;;;;;;7.20;99.90;;;;;;5038939;28;20244;-67
2022/09/28 00:35:53;;;;;;;;;;;7.20;99.90;;;;;;5040830;28;20224;-67
2022/09/28 00:38:19;;;;;;;;;;;7.10;99.90;;;;;;5039044;28;20005;-67
2022/09/28 00:40:44;;;;;;;;;;;7.10;99.90;;;;;;5024957;28;20512;-67
2022/09/28 00:43:19;;;;;;;;;;;7.10;99.90;;;;;;5038547;28;19928;-67
2022/09/28 00:45:48;;;;;;;;;;;7.10;99.90;;;;;;5037113;28;19916;-67
2022/09/28 00:48:13;;;;;;;;;;;7.10;99.90;;;;;;5039375;28;20252;-67
2022/09/28 00:50:39;;;;;;;;;;;7.10;99.90;;;;;;5038204;28;19921;-67
2022/09/28 00:53:10;;;;;;;;;;;7.10;99.90;;;;;;5038934;28;19913;-67
2022/09/28 00:55:39;;;;;;;;;;;7.00;99.90;;;;;;5038030;28;20367;-67
2022/09/28 00:58:07;;;;;;;;;;;7.00;99.90;;;;;;5037220;28;20313;-67
2022/09/28 01:00:32;;;;;;;;;;;7.00;99.90;;;;;;5036907;28;19921;-67
2022/09/28 01:02:58;;;;;;;;;;;7.00;99.90;;;;;;5035939;28;20287;-67
2022/09/28 01:05:25;;;;;;;;;;;7.00;99.90;;;;;;5035583;28;19986;-67
2022/09/28 01:07:50;;;;;;;;;;;7.00;99.90;;;;;;5017511;28;20336;-67
2022/09/28 01:10:17;;;;;;;;;;;7.00;99.90;;;;;;5027670;28;19967;-67
2022/09/28 01:12:42;;;;;;;;;;;6.90;99.90;;;;;;5019858;28;20085;-68
2022/09/28 01:15:08;;;;;;;;;;;6.90;99.90;;;;;;5037314;28;19917;-67
2022/09/28 01:17:33;;;;;;;;;;;6.80;99.90;;;;;;5038978;28;19984;-67
2022/09/28 01:20:26;;;;;;;;;;;6.80;99.90;;;;;;5038653;28;19913;-67
2022/09/28 01:23:00;;;;;;;;;;;6.80;99.90;;;;;;5032133;28;20175;-67
2022/09/28 01:25:49;;;;;;;;;;;6.80;99.90;;;;;;5042264;28;19920;-67
2022/09/28 01:28:17;;;;;;;;;;;6.70;99.90;;;;;;5028942;28;19920;-66
2022/09/28 01:30:46;;;;;;;;;;;6.70;99.90;;;;;;5040452;28;19935;-67
2022/09/28 01:33:14;;;;;;;;;;;6.70;99.90;;;;;;5042649;28;20336;-67
2022/09/28 01:35:41;;;;;;;;;;;6.70;99.90;;;;;;5042174;28;19936;-67
2022/09/28 01:38:12;;;;;;;;;;;6.70;99.90;;;;;;5042447;28;20234;-67
2022/09/28 01:40:38;;;;;;;;;;;6.70;99.90;;;;;;5042185;28;19917;-67
2022/09/28 01:43:12;;;;;;;;;;;6.70;99.90;;;;;;5044994;28;20378;-67
2022/09/28 01:45:44;;;;;;;;;;;6.60;99.90;;;;;;5040415;28;19923;-67
2022/09/28 01:48:10;;;;;;;;;;;6.60;99.90;;;;;;5033795;28;20437;-67
2022/09/28 01:50:38;;;;;;;;;;;6.50;99.90;;;;;;5034175;28;19913;-67
2022/09/28 01:53:17;;;;;;;;;;;6.50;99.90;;;;;;5044393;28;20304;-67
2022/09/28 01:55:49;;;;;;;;;;;6.40;99.90;;;;;;5044711;28;19927;-67
2022/09/28 01:58:27;;;;;;;;;;;6.40;99.90;;;;;;5044790;28;19913;-67
2022/09/28 02:00:55;;;;;;;;;;;6.40;99.90;;;;;;5043991;28;19932;-67
2022/09/28 02:03:27;;;;;;;;;;;6.30;99.90;;;;;;5043686;28;19917;-67
2022/09/28 02:05:58;;;;;;;;;;;6.30;99.90;;;;;;5041334;28;20015;-67
2022/09/28 02:08:27;;;;;;;;;;;6.20;99.90;;;;;;5025326;28;20012;-67
2022/09/28 02:11:11;;;;;;;;;;;6.20;99.90;;;;;;5045242;28;20368;-67
2022/09/28 02:13:42;;;;;;;;;;;6.10;99.90;;;;;;5043285;28;19917;-66
2022/09/28 02:16:26;;;;;;;;;;;6.00;99.90;;;;;;5045322;28;20010;-67
2022/09/28 02:18:52;;;;;;;;;;;6.00;99.90;;;;;;5031140;28;19913;-67
2022/09/28 02:21:24;;;;;;;;;;;6.00;99.90;;;;;;5037283;28;19955;-67
2022/09/28 02:23:55;;;;;;;;;;;6.00;99.90;;;;;;5039600;28;19921;-67
2022/09/28 02:26:23;;;;;;;;;;;6.00;99.90;;;;;;5012509;28;20004;-67
2022/09/28 02:28:49;;;;;;;;;;;6.00;99.90;;;;;;5029531;28;20074;-67
2022/09/28 02:31:14;;;;;;;;;;;6.00;99.90;;;;;;5026920;28;19917;-67
2022/09/28 02:33:42;;;;;;;;;;;6.00;99.90;;;;;;5024899;28;19913;-67
2022/09/28 02:36:07;;;;;;;;;;;6.00;99.90;;;;;;5042707;28;19967;-67
2022/09/28 02:38:34;;;;;;;;;;;6.00;99.90;;;;;;5041142;28;19917;-67
2022/09/28 02:41:03;;;;;;;;;;;6.00;99.90;;;;;;5043175;28;20087;-67
2022/09/28 02:43:29;;;;;;;;;;;5.90;99.90;;;;;;5043484;28;19999;-67
2022/09/28 02:46:00;;;;;;;;;;;6.00;99.90;;;;;;5043546;28;19912;-67
2022/09/28 02:48:26;;;;;;;;;;;6.00;99.90;;;;;;5044023;28;20070;-68
2022/09/28 02:51:02;;;;;;;;;;;6.00;99.90;;;;;;5038622;28;20553;-68
2022/09/28 02:53:30;;;;;;;;;;;6.00;99.90;;;;;;5043172;28;19936;-68
2022/09/28 02:56:14;;;;;;;;;;;6.00;99.90;;;;;;5042498;28;20325;-68
2022/09/28 02:58:58;;;;;;;;;;;6.00;99.90;;;;;;5043402;28;20442;-68
2022/09/28 03:01:28;;;;;;;;;;;6.00;99.90;;;;;;5042334;28;19921;-68
2022/09/28 03:04:01;;;;;;;;;;;6.00;99.90;;;;;;5043325;28;20395;-68
2022/09/28 03:06:30;;;;;;;;;;;6.00;99.90;;;;;;5043032;28;19929;-67
2022/09/28 03:08:58;;;;;;;;;;;6.00;99.90;;;;;;5042214;28;20039;-68
2022/09/28 03:11:27;;;;;;;;;;;6.00;99.90;;;;;;5042760;28;19996;-68
2022/09/28 03:13:53;;;;;;;;;;;6.00;99.90;;;;;;5042730;28;20035;-68
2022/09/28 03:16:18;;;;;;;;;;;5.90;99.90;;;;;;5043210;28;20011;-67
2022/09/28 03:18:44;;;;;;;;;;;5.90;99.90;;;;;;5041892;28;20312;-68
2022/09/28 03:21:11;;;;;;;;;;;5.80;99.90;;;;;;5043768;28;19924;-68
2022/09/28 03:23:37;;;;;;;;;;;5.80;99.90;;;;;;5043355;28;19995;-67
2022/09/28 03:26:02;;;;;;;;;;;5.80;99.90;;;;;;5020448;28;20000;-67
2022/09/28 03:28:28;;;;;;;;;;;5.80;99.90;;;;;;5042556;28;20015;-68
2022/09/28 03:30:54;;;;;;;;;;;5.80;99.90;;;;;;5041946;28;19923;-67
2022/09/28 03:33:20;;;;;;;;;;;5.80;99.90;;;;;;5043022;28;20347;-68
2022/09/28 03:35:47;;;;;;;;;;;5.80;99.90;;;;;;5041207;28;20248;-67
2022/09/28 03:38:12;;;;;;;;;;;5.80;99.90;;;;;;5026867;28;20020;-68
2022/09/28 03:40:38;;;;;;;;;;;5.80;99.90;;;;;;5041350;28;20023;-68
2022/09/28 03:43:03;;;;;;;;;;;5.80;99.90;;;;;;5039314;28;19917;-68
2022/09/28 03:45:29;;;;;;;;;;;5.80;99.90;;;;;;5038351;28;19949;-67
2022/09/28 03:47:54;;;;;;;;;;;5.80;99.90;;;;;;5038424;28;20374;-68
2022/09/28 03:50:20;;;;;;;;;;;5.80;99.90;;;;;;5031197;28;20373;-68
2022/09/28 03:52:45;;;;;;;;;;;5.80;99.90;;;;;;5042337;28;20348;-67
2022/09/28 03:55:11;;;;;;;;;;;5.70;99.90;;;;;;5046004;28;20100;-67
2022/09/28 03:57:37;;;;;;;;;;;5.70;99.90;;;;;;5042759;28;20386;-67
2022/09/28 04:00:03;;;;;;;;;;;5.70;99.90;;;;;;5036294;28;19916;-68
2022/09/28 04:02:29;;;;;;;;;;;5.80;99.90;;;;;;5041046;28;19962;-68
2022/09/28 04:04:55;;;;;;;;;;;5.70;99.90;;;;;;5040272;28;19916;-67
2022/09/28 04:07:20;;;;;;;;;;;5.70;99.90;;;;;;5042426;28;19925;-67
2022/09/28 04:09:46;;;;;;;;;;;5.70;99.90;;;;;;5040601;28;19917;-67
2022/09/28 04:12:11;;;;;;;;;;;5.70;99.90;;;;;;5042166;28;19913;-67
2022/09/28 04:14:37;;;;;;;;;;;5.70;99.90;;;;;;5042516;28;19924;-67
2022/09/28 04:17:03;;;;;;;;;;;5.70;99.90;;;;;;5040530;28;20292;-67
2022/09/28 04:19:29;;;;;;;;;;;5.70;99.90;;;;;;5027247;28;19913;-68
2022/09/28 04:21:54;;;;;;;;;;;5.60;99.90;;;;;;5040049;28;19931;-67
2022/09/28 04:24:20;;;;;;;;;;;5.60;99.90;;;;;;5041389;28;19912;-68
2022/09/28 04:26:45;;;;;;;;;;;5.60;99.90;;;;;;5044896;28;19948;-68
2022/09/28 04:29:14;;;;;;;;;;;5.60;99.90;;;;;;5044170;28;19917;-67
2022/09/28 04:31:50;;;;;;;;;;;5.50;99.90;;;;;;5037748;28;19927;-68
2022/09/28 04:34:17;;;;;;;;;;;5.50;99.90;;;;;;5015095;28;19929;-67
2022/09/28 04:36:46;;;;;;;;;;;5.50;99.90;;;;;;5017292;28;19925;-67
2022/09/28 04:39:12;;;;;;;;;;;5.50;99.90;;;;;;5016619;28;20353;-68
2022/09/28 04:41:38;;;;;;;;;;;5.50;99.90;;;;;;5048779;28;19921;-67
2022/09/28 04:44:04;;;;;;;;;;;5.50;99.90;;;;;;5042215;28;19970;-67
2022/09/28 04:46:29;;;;;;;;;;;5.50;99.90;;;;;;5034645;28;19928;-67
2022/09/28 04:48:55;;;;;;;;;;;5.40;99.90;;;;;;5035099;28;19917;-67
2022/09/28 04:51:20;;;;;;;;;;;5.50;99.90;;;;;;5033642;28;20319;-68
2022/09/28 04:53:46;;;;;;;;;;;5.50;99.90;;;;;;5033229;28;20008;-67
2022/09/28 04:56:12;;;;;;;;;;;5.50;99.90;;;;;;5037212;28;19967;-68
2022/09/28 04:58:38;;;;;;;;;;;5.50;99.90;;;;;;5038558;28;20380;-68
2022/09/28 05:01:05;;;;;;;;;;;5.50;99.90;;;;;;5036634;28;20004;-68
2022/09/28 05:03:31;;;;;;;;;;;5.40;99.90;;;;;;5031071;28;20051;-68
2022/09/28 05:05:57;;;;;;;;;;;5.40;99.90;;;;;;5035481;28;20059;-68
2022/09/28 05:08:23;;;;;;;;;;;5.30;99.90;;;;;;5037401;28;20039;-67
2022/09/28 05:10:55;;;;;;;;;;;5.30;99.90;;;;;;5029842;28;20020;-67
2022/09/28 05:13:20;;;;;;;;;;;5.30;99.90;;;;;;5036008;28;19919;-68
2022/09/28 05:15:46;;;;;;;;;;;5.30;99.90;;;;;;5034455;28;19917;-67
2022/09/28 05:18:13;;;;;;;;;;;5.30;99.90;;;;;;5038113;28;20383;-67
2022/09/28 05:20:39;;;;;;;;;;;5.30;99.90;;;;;;5039105;28;19925;-67
2022/09/28 05:23:04;;;;;;;;;;;5.20;99.90;;;;;;5038668;28;20428;-68
2022/09/28 05:25:30;;;;;;;;;;;5.10;99.90;;;;;;5039070;28;19940;-67
2022/09/28 05:27:56;;;;;;;;;;;5.10;99.90;;;;;;5037846;28;19916;-67
2022/09/28 05:30:22;;;;;;;;;;;5.00;99.90;;;;;;5037115;28;19981;-68
2022/09/28 05:32:49;;;;;;;;;;;5.00;99.90;;;;;;5007695;28;20376;-68
2022/09/28 05:35:15;;;;;;;;;;;5.00;99.90;;;;;;5018605;28;20419;-67
2022/09/28 05:37:41;;;;;;;;;;;4.90;99.90;;;;;;5018997;28;20258;-67
2022/09/28 05:40:07;;;;;;;;;;;4.90;99.90;;;;;;5015367;28;19956;-67
2022/09/28 05:42:32;;;;;;;;;;;4.90;99.90;;;;;;5036414;28;19925;-68
2022/09/28 05:44:58;;;;;;;;;;;4.80;99.90;;;;;;5032808;28;19978;-67
2022/09/28 05:47:24;;;;;;;;;;;4.80;99.90;;;;;;5035372;28;20368;-67
2022/09/28 05:49:50;;;;;;;;;;;4.80;99.90;;;;;;5037384;28;19951;-67
2022/09/28 05:52:16;;;;;;;;;;;4.80;99.90;;;;;;5021637;28;20066;-67
2022/09/28 05:54:41;;;;;;;;;;;4.80;99.90;;;;;;5016027;28;20486;-67
2022/09/28 05:57:07;;;;;;;;;;;4.80;99.90;;;;;;5027317;28;19917;-67
2022/09/28 05:59:34;;;;;;;;;;;4.70;99.90;;;;;;5050963;28;20268;-67
2022/09/28 06:01:59;;;;;;;;;;;4.70;99.90;;;;;;5043928;28;20078;-68
2022/09/28 06:04:25;;;;;;;;;;;4.80;99.90;;;;;;5036473;28;20019;-68
2022/09/28 06:06:50;;;;;;;;;;;4.70;99.90;;;;;;5037456;28;20070;-67
2022/09/28 06:09:16;;;;;;;;;;;4.70;99.90;;;;;;5041288;28;19912;-67
2022/09/28 06:11:41;;;;;;;;;;;4.80;99.90;;;;;;5041165;28;20083;-68
2022/09/28 06:14:07;;;;;;;;;;;4.80;99.90;;;;;;5021479;28;19921;-67
2022/09/28 06:16:33;;;;;;;;;;;4.80;99.90;;;;;;5038123;28;20551;-68
2022/09/28 06:18:59;;;;;;;;;;;4.90;99.90;;;;;;5034798;28;19916;-67
2022/09/28 06:21:25;;;;;;;;;;;5.00;99.90;;;;;;5037738;28;19925;-67
2022/09/28 06:23:50;;;;;;;;;;;5.10;99.90;;;;;;5022841;28;19990;-67
2022/09/28 06:26:16;;;;;;;;;;;5.20;99.90;;;;;;5021182;28;19917;-67
2022/09/28 06:28:42;;;;;;;;;;;5.30;99.90;;;;;;5036024;28;19920;-67
2022/09/28 06:31:07;;;;;;;;;;;5.40;99.90;;;;;;5034724;28;19956;-67
2022/09/28 06:33:34;;;;;;;;;;;5.40;99.90;;;;;;5038473;28;19917;-67
2022/09/28 06:36:00;;;;;;;;;;;5.40;99.90;;;;;;5035348;28;19961;-67
2022/09/28 06:38:25;;;;;;;;;;;5.50;99.90;;;;;;5034956;28;20427;-67
2022/09/28 06:40:51;;;;;;;;;;;5.50;99.90;;;;;;5034027;28;20010;-68
2022/09/28 06:43:17;;;;;;;;;;;5.60;99.90;;;;;;5035694;28;20282;-67
2022/09/28 06:45:43;;;;;;;;;;;5.70;99.90;;;;;;5037282;28;19919;-66
2022/09/28 06:48:09;;;;;;;;;;;5.80;99.90;;;;;;5040002;28;19916;-67
2022/09/28 06:50:37;;;;;;;;;;;5.80;99.90;;;;;;5033815;28;20007;-68
2022/09/28 06:53:03;;;;;;;;;;;5.90;99.90;;;;;;5042470;28;19935;-67
2022/09/28 06:55:29;;;;;;;;;;;5.90;99.90;;;;;;5036375;28;20313;-67
2022/09/28 06:57:58;;;;;;;;;;;6.00;99.90;;;;;;5041305;28;19923;-67
2022/09/28 07:00:25;;;;;;;;;;;6.10;99.90;;;;;;5040054;28;19917;-68
2022/09/28 07:02:50;;;;;;;;;;;6.20;99.90;;;;;;5036626;28;19924;-67
2022/09/28 07:05:18;;;;;;;;;;;6.30;99.90;;;;;;5036020;28;19937;-67
2022/09/28 07:07:43;;;;;;;;;;;6.40;99.90;;;;;;5044750;28;20003;-67
2022/09/28 07:10:11;;;;;;;;;;;6.60;99.90;;;;;;5034285;28;20074;-67
2022/09/28 07:12:38;;;;;;;;;;;6.80;99.90;;;;;;5019224;28;19920;-67
2022/09/28 07:15:04;;;;;;;;;;;6.80;99.90;;;;;;5039892;28;19913;-67
2022/09/28 07:17:30;;;;;;;;;;;6.80;99.90;;;;;;5041012;28;19917;-67
2022/09/28 07:19:57;;;;;;;;;;;6.80;99.90;;;;;;5024227;28;19917;-67
2022/09/28 07:22:22;;;;;;;;;;;6.90;99.90;;;;;;5036599;28;20219;-67
2022/09/28 07:24:48;;;;;;;;;;;6.80;99.90;;;;;;5028982;28;20064;-67
2022/09/28 07:27:14;;;;;;;;;;;6.80;99.90;;;;;;5033052;28;19952;-67
2022/09/28 07:29:39;;;;;;;;;;;6.90;99.90;;;;;;5008723;28;20571;-67
2022/09/28 07:32:05;;;;;;;;;;;7.00;99.90;;;;;;5035291;28;20324;-68
2022/09/28 07:34:31;;;;;;;;;;;7.10;99.90;;;;;;5037131;28;20378;-67
2022/09/28 07:36:58;;;;;;;;;;;7.20;99.90;;;;;;5028517;28;19920;-67
2022/09/28 07:39:24;;;;;;;;;;;7.30;99.90;;;;;;5028617;28;20499;-67
2022/09/28 07:41:49;;;;;;;;;;;7.40;99.90;;;;;;5037304;28;19982;-67
2022/09/28 07:44:16;;;;;;;;;;;7.60;99.90;;;;;;5043442;28;20828;-67
2022/09/28 07:46:42;;;;;;;;;;;7.70;99.90;;;;;;5043796;28;19923;-67
2022/09/28 07:49:07;;;;;;;;;;;7.80;99.90;;;;;;5036192;28;19924;-67
2022/09/28 07:51:33;;;;;;;;;;;7.90;99.90;;;;;;5036381;28;19918;-67
2022/09/28 07:53:58;;;;;;;;;;;8.10;99.90;;;;;;5018206;28;19929;-67
2022/09/28 07:56:25;;;;;;;;;;;8.20;99.90;;;;;;5031608;28;20288;-68
2022/09/28 07:58:50;;;;;;;;;;;8.30;99.90;;;;;;5029257;28;20090;-67
2022/09/28 08:01:17;;;;;;;;;;;8.60;99.90;;;;;;5028646;28;20258;-67
2022/09/28 08:03:44;;;;;;;;;;;9.00;99.90;;;;;;5033434;28;19917;-67
2022/09/28 08:06:11;;;;;;;;;;;9.40;99.90;;;;;;5033874;28;20359;-67
2022/09/28 08:08:42;;;;;;;;;;;10.60;99.90;;;;;;5032788;28;20016;-67
2022/09/28 08:11:09;;;;;;;;;;;14.20;99.90;;;;;;5026796;28;19970;-68
2022/09/28 08:13:35;;;;;;;;;;;18.30;99.90;;;;;;5022046;28;20359;-68
2022/09/28 08:16:01;;;;;;;;;;;20.90;93.90;;;;;;5020016;28;19959;-68
2022/09/28 08:18:27;;;;;;;;;;;22.90;80.30;;;;;;5020270;28;19963;-68
2022/09/28 08:23:37;;;;;;;;;;;25.30;65.10;;;;;;5025802;28;19936;-68
2022/09/28 08:26:02;;;;;;;;;;;25.60;61.60;;;;;;5035096;28;19921;-68
2022/09/28 08:28:28;;;;;;;;;;;26.30;56.00;;;;;;5033090;28;19917;-68
2022/09/28 08:30:54;;;;;;;;;;;27.10;56.70;;;;;;5031130;28;20007;-68
2022/09/28 08:33:22;;;;;;;;;;;27.50;53.00;;;;;;5029730;28;19921;-69
2022/09/28 08:35:54;;;;;;;;;;;27.10;49.80;;;;;;5032954;28;19917;-68
2022/09/28 08:38:20;;;;;;;;;;;27.50;50.00;;;;;;5010104;28;19921;-68
2022/09/28 08:40:48;;;;;;;;;;;28.20;48.80;;;;;;5032647;28;20399;-68
2022/09/28 08:43:22;;;;;;;;;;;28.50;49.80;;;;;;5030384;28;19964;-69
2022/09/28 08:45:49;;;;;;;;;;;28.80;47.50;;;;;;5034262;28;19917;-68
2022/09/28 08:51:26;;;;;;;;;;;28.30;48.40;;;;;;5018475;28;20099;-68
2022/09/28 08:53:58;;;;;;;;;;;27.60;47.20;;;;;;5017731;28;19917;-68
2022/09/28 08:56:29;;;;;;;;;;;27.50;47.40;;;;;;4685001;28;9999680;-68
2022/09/28 08:58:57;;;;;;;;;;;28.00;46.50;;;;;;5030915;28;20360;-69
2022/09/28 09:01:24;;;;;;;;;;;28.20;48.90;;;;;;5032756;28;20079;-68
2022/09/28 09:03:51;;;;;;;;;;;27.50;47.20;;;;;;5026106;28;19921;-68
2022/09/28 09:06:16;;;;;;;;;;;27.60;48.60;;;;;;5029981;28;19983;-69
2022/09/28 09:09:00;;;;;;;;;;;27.80;50.00;;;;;;5034380;28;19956;-68
2022/09/28 09:11:26;;;;;;;;;;;27.10;48.80;;;;;;5032480;28;19951;-68
2022/09/28 09:13:58;;;;;;;;;;;27.20;49.40;;;;;;5040533;28;19951;-69
2022/09/28 09:16:30;;;;;;;;;;;27.40;51.50;;;;;;5032310;28;20463;-68
2022/09/28 09:19:05;;;;;;;;;;;27.30;48.90;;;;;;5032630;28;19917;-69
2022/09/28 09:21:49;;;;;;;;;;;26.20;48.00;;;;;;5033673;28;19925;-69
2022/09/28 09:24:15;;;;;;;;;;;23.80;54.70;;;;;;5026430;28;19920;-68
2022/09/28 09:26:40;;;;;;;;;;;22.10;60.70;;;;;;5029930;28;19929;-68
2022/09/28 09:29:15;;;;;;;;;;;20.30;64.50;;;;;;5032458;28;20175;-68
2022/09/28 09:31:41;;;;;;;;;;;20.50;71.40;;;;;;5012586;28;19916;-69
2022/09/28 09:34:17;;;;;;;;;;;22.40;70.20;;;;;;5037492;28;19917;-69
2022/09/28 09:37:09;;;;;;;;;;;24.00;62.80;;;;;;5033782;28;20011;-69
2022/09/28 09:39:40;;;;;;;;;;;24.20;61.20;;;;;;4999597;28;20048;-69
2022/09/28 09:42:27;;;;;;;;;;;24.90;59.00;;;;;;5036185;28;19971;-68
2022/09/28 09:44:55;;;;;;;;;;;25.60;53.80;;;;;;5034322;28;19917;-69
2022/09/28 09:47:28;;;;;;;;;;;25.60;54.80;;;;;;5030857;28;20032;-68
2022/09/28 09:50:01;;;;;;;;;;;25.90;54.30;;;;;;5035542;28;19917;-68
2022/09/28 09:52:45;;;;;;;;;;;25.60;55.10;;;;;;5033478;28;20265;-69
2022/09/28 09:55:15;;;;;;;;;;;25.90;53.20;;;;;;5030454;28;19917;-69
2022/09/28 09:57:43;;;;;;;;;;;26.50;54.20;;;;;;5040811;28;19921;-68
2022/09/28 10:00:13;;;;;;;;;;;26.90;51.70;;;;;;5027375;28;20008;-69
2022/09/28 10:02:38;;;;;;;;;;;26.30;52.10;;;;;;5031569;28;19925;-69
2022/09/28 10:05:10;;;;;;;;;;;26.30;55.40;;;;;;5031876;28;20000;-68
2022/09/28 10:07:42;;;;;;;;;;;26.20;54.70;;;;;;5025566;28;20099;-69
2022/09/28 10:10:14;;;;;;;;;;;25.80;54.80;;;;;;5039492;28;20039;-68
2022/09/28 10:12:40;;;;;;;;;;;25.30;55.50;;;;;;5037429;28;19917;-68
2022/09/28 10:15:06;;;;;;;;;;;24.70;55.60;;;;;;5042210;28;19924;-69
2022/09/28 10:17:33;;;;;;;;;;;24.20;55.70;;;;;;5039207;28;20001;-68
2022/09/28 10:19:59;;;;;;;;;;;24.30;57.90;;;;;;5032558;28;20020;-69
2022/09/28 10:22:26;;;;;;;;;;;24.20;55.40;;;;;;5041810;28;20335;-68
2022/09/28 10:24:55;;;;;;;;;;;24.80;58.80;;;;;;5037126;28;20043;-69
2022/09/28 10:27:26;;;;;;;;;;;25.90;53.90;;;;;;5037796;28;19917;-69
2022/09/28 10:29:55;;;;;;;;;;;26.30;54.20;;;;;;5017682;28;19956;-68
2022/09/28 10:32:35;;;;;;;;;;;26.90;52.20;;;;;;5034151;28;19921;-68
2022/09/28 10:35:11;;;;;;;;;;;26.00;50.70;;;;;;5034955;28;19920;-68
2022/09/28 10:37:58;;;;;;;;;;;24.90;56.70;;;;;;5034039;28;20325;-68
2022/09/28 10:40:38;;;;;;;;;;;25.40;53.30;;;;;;5044498;28;20023;-67
2022/09/28 10:43:15;;;;;;;;;;;25.00;55.10;;;;;;5035180;28;19920;-68
2022/09/28 10:45:41;;;;;;;;;;;24.70;52.40;;;;;;5043702;28;19950;-67
2022/09/28 10:48:14;;;;;;;;;;;25.30;56.10;;;;;;5050881;28;19931;-68
2022/09/28 10:50:39;;;;;;;;;;;25.20;52.80;;;;;;5038119;28;19909;-68
2022/09/28 10:53:23;;;;;;;;;;;23.80;52.50;;;;;;5038147;28;19916;-68
2022/09/28 10:55:56;;;;;;;;;;;22.70;57.80;;;;;;5039617;28;19973;-67
2022/09/28 10:58:26;;;;;;;;;;;21.70;60.10;;;;;;5050262;28;19916;-67
2022/09/28 11:00:51;;;;;;;;;;;21.90;67.30;;;;;;5038470;28;20356;-67
2022/09/28 11:03:19;;;;;;;;;;;22.20;60.20;;;;;;5028091;28;20902;-68
2022/09/28 11:06:04;;;;;;;;;;;21.30;62.00;;;;;;5040127;28;20376;-68
2022/09/28 11:08:34;;;;;;;;;;;20.10;66.30;;;;;;5037820;28;20475;-68
2022/09/28 11:11:07;;;;;;;;;;;18.90;74.10;;;;;;5040198;28;20435;-68
2022/09/28 11:13:44;;;;;;;;;;;18.10;85.00;;;;;;5040360;28;20027;-67
2022/09/28 11:16:19;;;;;;;;;;;17.30;91.50;;;;;;5038695;28;19947;-67
2022/09/28 11:18:44;;;;;;;;;;;16.60;95.50;;;;;;5040153;28;19966;-68
2022/09/28 11:21:17;;;;;;;;;;;16.10;99.90;;;;;;5033899;28;20367;-67
2022/09/28 11:24:06;;;;;;;;;;;15.70;99.90;;;;;;5032693;28;19916;-70
2022/09/28 11:26:36;;;;;;;;;;;15.60;99.90;;;;;;5022893;28;20068;-67
2022/09/28 11:29:03;;;;;;;;;;;15.40;99.90;;;;;;5032338;28;19917;-67
2022/09/28 11:31:30;;;;;;;;;;;16.00;99.90;;;;;;5040451;28;19927;-69
2022/09/28 11:34:19;;;;;;;;;;;16.20;99.90;;;;;;5028601;28;19921;-67
2022/09/28 11:36:51;;;;;;;;;;;16.30;99.90;;;;;;4683009;28;9999793;-68
2022/09/28 11:39:26;;;;;;;;;;;16.20;99.90;;;;;;5025985;28;19917;-67
2022/09/28 11:41:57;;;;;;;;;;;15.80;99.90;;;;;;5035583;28;20367;-67
2022/09/28 11:44:38;;;;;;;;;;;15.80;99.90;;;;;;5032292;28;20455;-67
2022/09/28 11:47:07;;;;;;;;;;;16.10;99.90;;;;;;5027533;28;19982;-68
2022/09/28 11:49:36;;;;;;;;;;;16.90;99.90;;;;;;5032686;28;20151;-67
2022/09/28 11:52:05;;;;;;;;;;;17.30;96.50;;;;;;5033019;28;19916;-67
2022/09/28 11:54:43;;;;;;;;;;;17.10;99.10;;;;;;5036805;28;19921;-67
2022/09/28 11:57:13;;;;;;;;;;;16.60;95.90;;;;;;5033959;28;19927;-67
2022/09/28 11:59:41;;;;;;;;;;;15.90;99.30;;;;;;5029609;28;20012;-67
2022/09/28 12:02:21;;;;;;;;;;;15.60;99.90;;;;;;5030738;28;19940;-68
2022/09/28 12:04:55;;;;;;;;;;;15.30;99.90;;;;;;5032654;28;19921;-67
2022/09/28 12:07:26;;;;;;;;;;;16.00;99.90;;;;;;5035771;28;19921;-68
2022/09/28 12:10:08;;;;;;;;;;;16.70;99.90;;;;;;5028204;28;20272;-67
2022/09/28 12:12:57;;;;;;;;;;;17.40;99.90;;;;;;5026479;28;19916;-68
2022/09/28 12:15:29;;;;;;;;;;;18.00;92.30;;;;;;5021652;28;19921;-67
2022/09/28 12:18:01;;;;;;;;;;;18.70;87.50;;;;;;5030785;28;19924;-68
2022/09/28 12:20:32;;;;;;;;;;;18.70;84.50;;;;;;5025932;28;19966;-67
2022/09/28 12:22:57;;;;;;;;;;;18.80;88.30;;;;;;5025646;28;20016;-67
2022/09/28 12:25:23;;;;;;;;;;;18.70;84.70;;;;;;5014924;28;19917;-68
2022/09/28 12:27:51;;;;;;;;;;;18.60;90.50;;;;;;5032262;28;19928;-67
2022/09/28 12:30:18;;;;;;;;;;;18.90;91.00;;;;;;5028294;28;20253;-68
2022/09/28 12:33:02;;;;;;;;;;;18.90;82.50;;;;;;5031631;28;19965;-67
2022/09/28 12:35:31;;;;;;;;;;;18.90;75.80;;;;;;5034716;28;19926;-68
2022/09/28 12:37:57;;;;;;;;;;;19.00;80.00;;;;;;5034749;28;19916;-67
2022/09/28 12:40:42;;;;;;;;;;;19.30;77.60;;;;;;5033412;28;19920;-67
2022/09/28 12:43:08;;;;;;;;;;;19.40;80.10;;;;;;5035177;28;19975;-68
2022/09/28 12:45:36;;;;;;;;;;;19.50;80.30;;;;;;5034461;28;20423;-68
2022/09/28 12:48:07;;;;;;;;;;;19.70;79.10;;;;;;5039770;28;19943;-69
2022/09/28 12:50:56;;;;;;;;;;;19.50;78.30;;;;;;5021126;28;19917;-69
2022/09/28 12:53:34;;;;;;;;;;;19.40;80.80;;;;;;5032497;28;19967;-69
2022/09/28 12:56:26;;;;;;;;;;;19.00;77.60;;;;;;5010089;28;20360;-69
2022/09/28 12:59:03;;;;;;;;;;;18.40;77.00;;;;;;5010927;28;19921;-69
2022/09/28 13:01:40;;;;;;;;;;;17.80;77.90;;;;;;5019028;28;19925;-69
2022/09/28 13:04:25;;;;;;;;;;;17.30;85.20;;;;;;5028582;28;19921;-69
2022/09/28 13:07:20;;;;;;;;;;;16.80;87.50;;;;;;5023599;28;19929;-69
2022/09/28 13:09:51;;;;;;;;;;;16.60;92.70;;;;;;4969812;28;20008;-69
2022/09/28 13:12:40;;;;;;;;;;;16.60;91.10;;;;;;5033502;28;20402;-69
2022/09/28 13:15:11;;;;;;;;;;;16.60;91.40;;;;;;5019760;28;19924;-69
2022/09/28 13:17:37;;;;;;;;;;;16.70;93.30;;;;;;5028027;28;19917;-69
2022/09/28 13:20:35;;;;;;;;;;;16.90;90.30;;;;;;5032553;28;20019;-69
2022/09/28 13:23:20;;;;;;;;;;;17.30;89.00;;;;;;5001038;28;19932;-69
2022/09/28 13:25:49;;;;;;;;;;;18.00;83.00;;;;;;5006869;28;19917;-70
2022/09/28 13:28:15;;;;;;;;;;;18.60;88.60;;;;;;5029358;28;19917;-69
2022/09/28 13:30:42;;;;;;;;;;;18.80;79.90;;;;;;5039477;28;19920;-68
2022/09/28 13:33:13;;;;;;;;;;;18.80;78.50;;;;;;5029679;28;19917;-69
2022/09/28 13:35:42;;;;;;;;;;;18.60;82.00;;;;;;5031835;28;20478;-68
2022/09/28 13:38:15;;;;;;;;;;;18.30;79.60;;;;;;5036040;28;19955;-69
2022/09/28 13:40:59;;;;;;;;;;;18.30;81.00;;;;;;5037248;28;20013;-69
2022/09/28 13:43:30;;;;;;;;;;;18.60;86.40;;;;;;5035369;28;19955;-69
2022/09/28 13:45:58;;;;;;;;;;;18.60;75.60;;;;;;5035627;28;19917;-69
2022/09/28 13:48:43;;;;;;;;;;;18.50;77.30;;;;;;5022097;28;19967;-69
2022/09/28 13:51:18;;;;;;;;;;;18.50;75.60;;;;;;5035881;28;20368;-69
2022/09/28 13:53:50;;;;;;;;;;;18.30;77.00;;;;;;5019459;28;19986;-69
2022/09/28 13:56:34;;;;;;;;;;;18.40;76.00;;;;;;5038849;28;19912;-69
2022/09/28 13:59:19;;;;;;;;;;;18.30;77.90;;;;;;5032394;28;20606;-69
2022/09/28 14:02:05;;;;;;;;;;;18.30;81.80;;;;;;5023819;28;19935;-69
2022/09/28 14:04:49;;;;;;;;;;;18.40;78.50;;;;;;4985918;28;19917;-71
2022/09/28 14:07:18;;;;;;;;;;;18.30;75.20;;;;;;5038404;28;19939;-71
2022/09/28 14:10:07;;;;;;;;;;;18.00;77.70;;;;;;5041634;28;20324;-70
2022/09/28 14:12:32;;;;;;;;;;;17.50;75.20;;;;;;5032145;28;19960;-70
2022/09/28 14:14:58;;;;;;;;;;;17.00;81.80;;;;;;5035297;28;20383;-71
2022/09/28 14:17:24;;;;;;;;;;;16.60;78.10;;;;;;5036887;28;19924;-71
2022/09/28 14:20:11;;;;;;;;;;;16.60;92.30;;;;;;5040097;28;20326;-71
2022/09/28 14:22:56;;;;;;;;;;;16.80;88.30;;;;;;5033047;28;19924;-71
2022/09/28 14:25:23;;;;;;;;;;;16.90;79.60;;;;;;5038109;28;19912;-70
2022/09/28 14:27:59;;;;;;;;;;;16.90;79.40;;;;;;5037952;28;19916;-71
2022/09/28 14:30:40;;;;;;;;;;;17.00;75.50;;;;;;5039128;28;19931;-71
2022/09/28 14:33:18;;;;;;;;;;;16.90;75.60;;;;;;5041480;28;20276;-71
2022/09/28 14:35:48;;;;;;;;;;;17.20;79.10;;;;;;5032712;28;19940;-70
2022/09/28 14:41:08;;;;;;;;;;;17.00;75.10;;;;;;5031141;28;19990;-71
2022/09/28 14:43:35;;;;;;;;;;;16.90;78.10;;;;;;5037338;28;19921;-71
2022/09/28 14:46:07;;;;;;;;;;;16.40;76.70;;;;;;5040360;28;19928;-71
2022/09/28 14:48:51;;;;;;;;;;;16.00;81.00;;;;;;5036249;28;20015;-71